Time;durP1;ratioP1;P1;durP2;ratioP2;P2;SDS_P1;SDS_P2;PMS_P1;PMS_P2;Temp;Humidity;BMP_temperature;BMP_pressure;BME280_temperature;BME280_humidity;BME280_pressure;Samples;Min_cycle;Max_cycle;Signal;HPM_P1;HPM_P2
2021/05/13 00:00:55;;;;;;;17.67;12.97;;;10.60;84.60;;;;;;5051393;28;20038;-86
2021/05/13 00:03:21;;;;;;;18.80;12.63;;;10.60;84.50;;;;;;5049739;28;20037;-86
2021/05/13 00:05:47;;;;;;;15.83;12.93;;;10.50;84.70;;;;;;4997584;28;20120;-86
2021/05/13 00:08:12;;;;;;;18.47;13.70;;;10.40;84.90;;;;;;5012465;28;20060;-86
2021/05/13 00:10:38;;;;;;;18.83;13.80;;;10.40;85.20;;;;;;5001290;28;20037;-87
2021/05/13 00:13:06;;;;;;;17.03;12.43;;;10.40;85.30;;;;;;5016288;28;20030;-85
2021/05/13 00:15:35;;;;;;;16.77;12.17;;;10.50;85.30;;;;;;5064910;28;20473;-86
2021/05/13 00:18:00;;;;;;;14.93;12.80;;;10.60;85.10;;;;;;5051983;28;20402;-83
2021/05/13 00:20:30;;;;;;;17.60;12.77;;;10.50;84.90;;;;;;5040853;28;20034;-87
2021/05/13 00:22:57;;;;;;;15.53;13.37;;;10.60;84.80;;;;;;5062712;28;20034;-86
2021/05/13 00:25:23;;;;;;;16.37;13.30;;;10.60;84.80;;;;;;5027472;28;20083;-86
2021/05/13 00:27:50;;;;;;;18.77;13.83;;;10.50;84.70;;;;;;5031511;28;20026;-87
2021/05/13 00:30:17;;;;;;;25.70;16.80;;;10.50;85.00;;;;;;5011930;28;20180;-87
2021/05/13 00:32:43;;;;;;;21.43;14.37;;;10.50;85.00;;;;;;5060888;28;20163;-86
2021/05/13 00:35:12;;;;;;;17.20;14.37;;;10.50;85.10;;;;;;5031911;28;20087;-87
2021/05/13 00:37:37;;;;;;;20.97;17.50;;;10.50;85.10;;;;;;5029775;28;20034;-87
2021/05/13 00:40:05;;;;;;;24.27;18.53;;;10.50;85.00;;;;;;5011046;28;20516;-84
2021/05/13 00:42:30;;;;;;;21.23;16.53;;;10.40;85.30;;;;;;5011916;28;20473;-87
2021/05/13 00:44:56;;;;;;;21.17;16.10;;;10.50;85.40;;;;;;5028049;28;20045;-87
2021/05/13 00:47:24;;;;;;;19.13;14.80;;;10.60;85.70;;;;;;5028140;28;20057;-88
2021/05/13 00:49:49;;;;;;;17.40;15.50;;;10.50;85.20;;;;;;5044541;28;20054;-88
2021/05/13 00:55:38;;;;;;;21.43;15.57;;;10.50;85.30;;;;;;5292891;23;20106;-87
2021/05/13 00:58:06;;;;;;;19.30;14.50;;;10.70;85.20;;;;;;5007157;28;20049;-87
2021/05/13 01:03:04;;;;;;;18.67;15.40;;;10.60;84.80;;;;;;4991124;28;20184;-87
2021/05/13 01:05:32;;;;;;;19.33;16.10;;;10.50;85.00;;;;;;4988520;28;20030;-86
2021/05/13 01:07:59;;;;;;;18.73;15.50;;;10.40;85.40;;;;;;4994154;28;20038;-87
2021/05/13 01:10:26;;;;;;;19.93;15.07;;;10.40;85.60;;;;;;4999276;28;20045;-85
2021/05/13 01:12:53;;;;;;;17.70;13.80;;;10.50;85.60;;;;;;5009280;28;20061;-87
2021/05/13 01:15:21;;;;;;;19.10;13.67;;;10.70;85.30;;;;;;5013696;28;20022;-87
2021/05/13 01:17:59;;;;;;;22.33;14.87;;;10.80;84.90;;;;;;5013087;28;20538;-89
2021/05/13 01:20:27;;;;;;;19.07;13.93;;;10.90;84.80;;;;;;5013765;28;20034;-86
2021/05/13 01:22:54;;;;;;;18.50;13.97;;;10.90;84.50;;;;;;5016142;28;20060;-88
2021/05/13 01:25:20;;;;;;;17.30;13.37;;;11.00;84.30;;;;;;5014802;28;20033;-87
2021/05/13 01:27:46;;;;;;;19.10;14.43;;;11.00;84.10;;;;;;5014187;28;20029;-89
2021/05/13 01:30:12;;;;;;;21.53;14.87;;;11.00;83.90;;;;;;5014915;28;20034;-85
2021/05/13 01:32:37;;;;;;;17.77;14.40;;;10.90;83.60;;;;;;4994583;28;20046;-87
2021/05/13 01:35:03;;;;;;;18.33;14.93;;;10.80;83.70;;;;;;4998992;28;20132;-87
2021/05/13 01:37:29;;;;;;;18.27;15.93;;;10.80;84.10;;;;;;4999330;28;20042;-84
2021/05/13 01:39:55;;;;;;;19.53;14.60;;;10.80;84.20;;;;;;5010281;28;20038;-88
2021/05/13 01:42:20;;;;;;;19.07;16.40;;;10.90;84.00;;;;;;5020763;28;20402;-87
2021/05/13 01:44:46;;;;;;;21.17;16.73;;;10.90;83.80;;;;;;5001148;28;20387;-86
2021/05/13 01:47:12;;;;;;;19.40;15.70;;;11.00;83.70;;;;;;4981827;28;20026;-87
2021/05/13 01:49:38;;;;;;;18.83;16.03;;;11.00;83.50;;;;;;4991771;28;20033;-87
2021/05/13 01:52:04;;;;;;;19.03;15.97;;;11.10;83.30;;;;;;4995192;28;20026;-88
2021/05/13 01:54:30;;;;;;;22.83;16.67;;;11.10;83.00;;;;;;4993946;28;20125;-85
2021/05/13 01:57:03;;;;;;;20.50;17.83;;;11.10;82.90;;;;;;5012646;28;20050;-87
2021/05/13 01:59:29;;;;;;;20.87;17.13;;;11.00;82.80;;;;;;5018089;28;20029;-89
2021/05/13 02:01:55;;;;;;;20.67;15.27;;;10.90;82.90;;;;;;5031347;28;20042;-88
2021/05/13 02:04:20;;;;;;;19.40;14.80;;;10.90;82.70;;;;;;5021836;28;20065;-89
2021/05/13 02:06:46;;;;;;;15.40;13.53;;;11.00;82.40;;;;;;5016009;28;20508;-88
2021/05/13 02:09:12;;;;;;;18.37;15.80;;;11.00;82.20;;;;;;4997423;28;20042;-87
2021/05/13 02:11:37;;;;;;;16.53;14.70;;;10.90;82.10;;;;;;4995376;28;20410;-88
2021/05/13 02:14:03;;;;;;;21.93;16.80;;;10.70;82.40;;;;;;5016189;28;20030;-87
2021/05/13 02:16:29;;;;;;;21.97;16.27;;;10.60;82.60;;;;;;4997545;28;20030;-89
2021/05/13 02:18:55;;;;;;;20.53;17.13;;;10.50;83.10;;;;;;4992464;28;20040;-88
2021/05/13 02:21:20;;;;;;;21.37;17.37;;;10.30;83.40;;;;;;5012264;28;20045;-88
2021/05/13 02:23:46;;;;;;;21.73;17.37;;;10.20;83.80;;;;;;4996638;28;20061;-89
2021/05/13 02:26:12;;;;;;;18.93;16.93;;;10.00;84.20;;;;;;5010361;28;20076;-84
2021/05/13 02:28:37;;;;;;;20.47;17.50;;;9.90;84.50;;;;;;5011279;28;20030;-89
2021/05/13 02:31:03;;;;;;;20.83;16.07;;;9.80;84.90;;;;;;4994683;28;20069;-88
2021/05/13 02:33:28;;;;;;;22.00;16.83;;;9.70;85.40;;;;;;5012243;28;20496;-87
2021/05/13 02:35:54;;;;;;;20.20;16.60;;;9.80;85.50;;;;;;5012956;28;20038;-89
2021/05/13 02:38:20;;;;;;;18.80;15.97;;;9.90;85.50;;;;;;5019503;28;20017;-84
2021/05/13 02:40:45;;;;;;;22.53;15.83;;;9.90;85.40;;;;;;5031100;28;20488;-89
2021/05/13 02:43:11;;;;;;;19.63;16.37;;;9.90;85.30;;;;;;4996827;28;20041;-89
2021/05/13 02:45:36;;;;;;;16.57;13.90;;;9.90;85.00;;;;;;4996193;28;20038;-87
2021/05/13 02:48:02;;;;;;;20.37;15.47;;;9.90;85.20;;;;;;4992890;28;20481;-87
2021/05/13 02:50:28;;;;;;;16.27;14.53;;;9.90;85.00;;;;;;4992813;28;20030;-88
2021/05/13 02:52:54;;;;;;;16.30;13.83;;;9.80;85.00;;;;;;4996907;28;20430;-89
2021/05/13 02:55:19;;;;;;;16.87;14.50;;;9.90;84.90;;;;;;4978983;28;20038;-88
2021/05/13 02:57:46;;;;;;;19.27;14.80;;;9.80;85.00;;;;;;5012502;28;20149;-89
2021/05/13 03:00:21;;;;;;;17.60;14.70;;;9.80;85.40;;;;;;5006121;28;20044;-88
2021/05/13 03:02:47;;;;;;;17.73;15.20;;;9.90;85.40;;;;;;5012561;28;20332;-89
2021/05/13 03:05:14;;;;;;;17.00;14.37;;;9.70;84.90;;;;;;5009064;28;20073;-89
2021/05/13 03:07:47;;;;;;;21.07;15.93;;;9.70;85.00;;;;;;4997939;28;20025;-87
2021/05/13 03:10:25;;;;;;;19.48;16.20;;;9.60;85.00;;;;;;5007785;28;20038;-90
2021/05/13 03:12:53;;;;;;;18.43;15.97;;;9.50;85.00;;;;;;5012740;28;20057;-88
2021/05/13 03:15:20;;;;;;;20.20;17.07;;;9.40;85.30;;;;;;4996681;28;20117;-89
2021/05/13 03:17:47;;;;;;;18.23;15.53;;;9.40;85.40;;;;;;5009691;28;20037;-89
2021/05/13 03:20:16;;;;;;;19.50;17.10;;;9.40;85.50;;;;;;4979511;28;20037;-89
2021/05/13 03:22:42;;;;;;;19.50;16.83;;;9.40;85.40;;;;;;5011529;28;20036;-84
2021/05/13 03:25:09;;;;;;;20.30;17.63;;;9.20;85.50;;;;;;4994143;28;20033;-90
2021/05/13 03:27:48;;;;;;;24.40;20.10;;;9.10;86.00;;;;;;5002529;28;20537;-88
2021/05/13 03:30:15;;;;;;;21.43;18.23;;;9.10;86.30;;;;;;5010953;28;20038;-86
2021/05/13 03:32:41;;;;;;;23.60;19.00;;;9.00;86.30;;;;;;5012239;28;20112;-87
2021/05/13 03:35:07;;;;;;;26.27;19.37;;;8.90;86.50;;;;;;5012087;28;20112;-87
2021/05/13 03:37:33;;;;;;;26.80;20.40;;;8.70;86.80;;;;;;5006902;28;20490;-86
2021/05/13 03:39:59;;;;;;;25.53;21.73;;;8.60;87.40;;;;;;5009352;28;20026;-88
2021/05/13 03:42:24;;;;;;;26.00;20.90;;;8.70;87.70;;;;;;5013825;28;20040;-88
2021/05/13 03:44:51;;;;;;;22.07;19.43;;;8.70;87.70;;;;;;4991238;28;20042;-89
2021/05/13 03:47:18;;;;;;;25.90;21.33;;;8.70;87.60;;;;;;5010836;28;20092;-88
2021/05/13 03:49:45;;;;;;;31.20;23.93;;;8.60;87.70;;;;;;5011018;28;20021;-91
2021/05/13 03:52:10;;;;;;;29.67;25.27;;;8.60;87.70;;;;;;5013210;28;20041;-90
2021/05/13 03:54:36;;;;;;;25.53;22.63;;;8.70;87.70;;;;;;4991763;28;20061;-90
2021/05/13 03:57:02;;;;;;;28.43;23.70;;;8.70;87.90;;;;;;5010551;28;20058;-88
2021/05/13 03:59:34;;;;;;;28.43;23.07;;;8.70;87.80;;;;;;5012014;28;20037;-90
2021/05/13 04:02:10;;;;;;;35.70;25.90;;;8.70;87.80;;;;;;5011224;28;20095;-91
2021/05/13 04:04:37;;;;;;;38.10;26.20;;;8.80;87.70;;;;;;4998916;28;20444;-91
2021/05/13 04:07:04;;;;;;;35.57;28.97;;;8.70;87.70;;;;;;5015257;28;20080;-91
2021/05/13 04:09:30;;;;;;;39.70;28.40;;;8.70;88.00;;;;;;5017400;28;20097;-91
2021/05/13 04:11:56;;;;;;;32.43;25.07;;;8.80;88.10;;;;;;5025416;28;20034;-91
2021/05/13 04:14:22;;;;;;;31.77;25.93;;;8.90;88.20;;;;;;5009940;28;20022;-92
2021/05/13 04:16:54;;;;;;;51.73;31.37;;;9.00;87.90;;;;;;5017745;28;20133;-90
2021/05/13 04:19:20;;;;;;;42.00;27.20;;;9.00;87.80;;;;;;5014626;28;20498;-89
2021/05/13 04:21:46;;;;;;;53.23;30.37;;;9.10;87.90;;;;;;5018220;28;20057;-91
2021/05/13 04:24:13;;;;;;;93.53;31.60;;;9.20;87.60;;;;;;5018663;28;20044;-92
2021/05/13 04:26:41;;;;;;;120.53;32.93;;;9.10;87.60;;;;;;5014548;28;20026;-92
2021/05/13 04:29:08;;;;;;;150.63;34.33;;;9.10;87.90;;;;;;5011698;28;20037;-90
2021/05/13 04:31:34;;;;;;;123.50;34.03;;;9.10;88.00;;;;;;5013706;28;20112;-90
2021/05/13 04:33:59;;;;;;;104.13;33.73;;;9.00;88.20;;;;;;5014001;28;20149;-91
2021/05/13 04:36:25;;;;;;;83.43;33.07;;;8.90;88.50;;;;;;4993898;28;20081;-93
2021/05/13 04:38:51;;;;;;;102.97;34.57;;;8.90;88.70;;;;;;4996062;28;20054;-91
2021/05/13 04:41:16;;;;;;;62.10;35.50;;;8.90;88.80;;;;;;5015324;28;20072;-90
2021/05/13 04:43:42;;;;;;;93.87;36.27;;;8.90;88.80;;;;;;5016141;28;20053;-91
2021/05/13 04:46:08;;;;;;;99.90;36.00;;;9.00;88.80;;;;;;5019188;28;20026;-92
2021/05/13 04:51:15;;;;;;;66.77;34.67;;;9.00;88.80;;;;;;5015733;28;20049;-91
2021/05/13 04:53:40;;;;;;;85.13;34.30;;;9.10;88.90;;;;;;4996628;28;20084;-91
2021/05/13 04:56:06;;;;;;;94.93;34.43;;;9.30;88.90;;;;;;5013071;28;20030;-91
2021/05/13 04:58:31;;;;;;;100.83;34.40;;;9.50;88.50;;;;;;5014434;28;20494;-91
2021/05/13 05:00:57;;;;;;;61.07;33.53;;;9.50;88.00;;;;;;5014090;28;20038;-90
2021/05/13 05:03:23;;;;;;;95.07;34.27;;;9.60;87.80;;;;;;5008849;28;20041;-91
2021/05/13 05:05:48;;;;;;;91.30;33.87;;;9.60;87.30;;;;;;4989781;28;20034;-91
2021/05/13 05:08:14;;;;;;;83.83;31.37;;;9.60;87.30;;;;;;4981414;28;20030;-90
2021/05/13 05:10:39;;;;;;;64.40;31.73;;;9.50;87.10;;;;;;4980040;28;20125;-92
2021/05/13 05:13:06;;;;;;;81.07;33.43;;;9.60;87.40;;;;;;4999488;28;20098;-91
2021/05/13 05:15:32;;;;;;;57.63;30.73;;;9.50;87.30;;;;;;4999095;28;20061;-90
2021/05/13 05:17:58;;;;;;;206.73;37.93;;;9.50;87.60;;;;;;4997925;28;20030;-84
2021/05/13 05:20:23;;;;;;;124.73;33.93;;;9.60;87.50;;;;;;4996978;28;20129;-90
2021/05/13 05:22:49;;;;;;;108.77;34.87;;;9.60;87.20;;;;;;5015107;28;20080;-91
2021/05/13 05:25:15;;;;;;;100.30;37.13;;;9.60;87.30;;;;;;5015157;28;20065;-89
2021/05/13 05:27:40;;;;;;;82.20;34.53;;;9.80;87.20;;;;;;4996384;28;20049;-91
2021/05/13 05:30:07;;;;;;;71.60;35.03;;;10.10;87.20;;;;;;5020040;28;20068;-88
2021/05/13 05:32:32;;;;;;;91.67;37.17;;;10.30;86.70;;;;;;4986625;28;20034;-89
2021/05/13 05:35:03;;;;;;;76.77;35.40;;;10.60;86.10;;;;;;4987039;28;20116;-89
2021/05/13 05:37:29;;;;;;;59.40;34.37;;;10.80;85.40;;;;;;4994262;28;20472;-88
2021/05/13 05:39:54;;;;;;;77.13;33.73;;;11.10;84.70;;;;;;4995820;28;20073;-87
2021/05/13 05:42:20;;;;;;;69.10;34.70;;;11.20;84.20;;;;;;5013066;28;20049;-88
2021/05/13 05:44:46;;;;;;;66.63;34.20;;;11.10;83.50;;;;;;4993361;28;20041;-89
2021/05/13 05:47:13;;;;;;;57.57;35.87;;;11.20;83.90;;;;;;4992865;28;20482;-89
2021/05/13 05:49:39;;;;;;;57.50;37.20;;;11.30;83.60;;;;;;4992776;28;20090;-87
2021/05/13 05:52:05;;;;;;;57.80;36.87;;;11.50;83.30;;;;;;4977168;28;20506;-83
2021/05/13 05:54:30;;;;;;;49.43;35.67;;;11.70;82.70;;;;;;5010347;28;20045;-86
2021/05/13 05:56:56;;;;;;;45.57;34.53;;;12.30;82.20;;;;;;5012021;28;20054;-85
2021/05/13 05:59:21;;;;;;;43.87;35.03;;;13.10;80.40;;;;;;5009408;28;20371;-87
2021/05/13 06:01:47;;;;;;;41.07;33.20;;;14.10;77.80;;;;;;5012718;28;20046;-89
2021/05/13 06:04:13;;;;;;;37.53;31.05;;;15.40;75.20;;;;;;4995971;28;20040;-87
2021/05/13 06:06:38;;;;;;;40.20;31.95;;;16.70;70.80;;;;;;5006258;28;20458;-87
2021/05/13 06:09:05;;;;;;;40.45;32.95;;;17.90;67.70;;;;;;4993087;28;20037;-87
2021/05/13 06:11:30;;;;;;;37.28;31.70;;;19.00;64.80;;;;;;4987817;28;22152;-85
2021/05/13 06:13:56;;;;;;;36.15;32.10;;;20.00;61.60;;;;;;4984969;28;20042;-86
2021/05/13 06:16:22;;;;;;;39.85;32.63;;;20.80;57.90;;;;;;4985409;28;20022;-86
2021/05/13 06:18:49;;;;;;;34.38;30.30;;;21.20;56.00;;;;;;4978078;28;20065;-86
2021/05/13 06:21:15;;;;;;;37.88;31.27;;;21.50;55.10;;;;;;4985812;28;20042;-86
2021/05/13 06:23:49;;;;;;;34.75;30.92;;;22.00;54.00;;;;;;5003955;28;20041;-86
2021/05/13 06:26:26;;;;;;;34.00;29.38;;;22.60;52.20;;;;;;5001188;28;20113;-86
2021/05/13 06:28:52;;;;;;;44.17;31.15;;;23.00;50.80;;;;;;5007038;28;20496;-85
2021/05/13 06:31:17;;;;;;;45.55;30.45;;;22.80;49.40;;;;;;5011706;28;20113;-84
2021/05/13 06:33:43;;;;;;;32.53;28.13;;;22.50;50.20;;;;;;5004688;28;20030;-84
2021/05/13 06:36:09;;;;;;;39.70;29.73;;;22.60;50.40;;;;;;5011002;28;20018;-86
2021/05/13 06:38:35;;;;;;;39.22;29.63;;;22.10;50.90;;;;;;5011818;28;20092;-84
2021/05/13 06:41:01;;;;;;;31.60;28.30;;;22.20;51.60;;;;;;5045867;28;20398;-84
2021/05/13 06:43:27;;;;;;;31.88;26.70;;;22.60;50.80;;;;;;5010795;28;20474;-84
2021/05/13 06:45:53;;;;;;;32.40;27.15;;;22.90;49.60;;;;;;5011420;28;20096;-83
2021/05/13 06:48:18;;;;;;;80.95;34.95;;;22.90;48.70;;;;;;5010649;28;20034;-83
2021/05/13 06:50:44;;;;;;;42.00;29.58;;;22.30;50.30;;;;;;5011553;28;20102;-84
2021/05/13 06:53:09;;;;;;;35.58;29.05;;;22.10;50.00;;;;;;5001654;28;21348;-83
2021/05/13 06:55:37;;;;;;;35.50;30.80;;;21.60;51.00;;;;;;5003000;28;20124;-82
2021/05/13 06:58:03;;;;;;;38.55;29.58;;;21.50;51.70;;;;;;4971374;28;20104;-82
2021/05/13 07:00:29;;;;;;;37.22;30.55;;;21.70;50.60;;;;;;5003346;28;20037;-81
2021/05/13 07:02:54;;;;;;;32.55;28.13;;;21.80;50.00;;;;;;5005758;28;20061;-84
2021/05/13 07:05:20;;;;;;;32.35;25.77;;;22.20;49.80;;;;;;5010509;28;20438;-83
2021/05/13 07:07:46;;;;;;;29.92;25.42;;;22.10;49.50;;;;;;5012305;28;20030;-81
2021/05/13 07:10:12;;;;;;;39.38;28.48;;;22.60;48.70;;;;;;4994876;28;20030;-81
2021/05/13 07:12:38;;;;;;;28.90;25.35;;;23.10;46.90;;;;;;4991247;28;20195;-82
2021/05/13 07:15:05;;;;;;;35.45;25.73;;;22.80;46.60;;;;;;4991648;28;20364;-84
2021/05/13 07:17:30;;;;;;;28.80;25.42;;;22.30;47.30;;;;;;4988001;28;20022;-85
2021/05/13 07:19:56;;;;;;;31.35;22.40;;;21.80;48.90;;;;;;4998818;28;20034;-82
2021/05/13 07:22:22;;;;;;;27.52;24.67;;;21.80;49.30;;;;;;5007817;28;20061;-84
2021/05/13 07:24:50;;;;;;;36.28;25.42;;;21.70;49.70;;;;;;4994381;28;20069;-83
2021/05/13 07:27:17;;;;;;;24.05;21.48;;;22.10;48.20;;;;;;5007819;28;20053;-83
2021/05/13 07:29:42;;;;;;;25.70;22.00;;;21.80;48.40;;;;;;4989394;28;20065;-82
2021/05/13 07:32:08;;;;;;;22.67;20.27;;;21.40;49.70;;;;;;5002677;28;20057;-85
2021/05/13 07:34:34;;;;;;;24.08;21.52;;;21.10;49.10;;;;;;4985742;28;20030;-82
2021/05/13 07:37:02;;;;;;;23.40;20.90;;;21.00;49.90;;;;;;4999647;28;20080;-83
2021/05/13 07:39:28;;;;;;;25.17;21.58;;;21.20;50.50;;;;;;4986665;28;20037;-82
2021/05/13 07:41:54;;;;;;;28.95;21.83;;;21.60;49.70;;;;;;5003186;28;20446;-82
2021/05/13 07:44:21;;;;;;;35.05;21.73;;;21.80;49.30;;;;;;5002534;28;20796;-82
2021/05/13 07:46:47;;;;;;;26.48;23.70;;;21.20;50.20;;;;;;5008567;28;20038;-82
2021/05/13 07:49:13;;;;;;;25.90;23.10;;;21.00;51.80;;;;;;5017580;28;20025;-83
2021/05/13 07:51:42;;;;;;;25.88;22.90;;;20.50;53.10;;;;;;5014167;28;20037;-83
2021/05/13 07:54:08;;;;;;;24.25;21.75;;;20.60;54.10;;;;;;5004328;28;20025;-85
2021/05/13 07:56:34;;;;;;;23.92;21.20;;;20.90;52.50;;;;;;4989089;28;20077;-83
2021/05/13 07:58:59;;;;;;;21.30;19.05;;;21.10;51.50;;;;;;4977051;28;20048;-81
2021/05/13 08:01:25;;;;;;;20.50;17.33;;;21.30;51.20;;;;;;4996730;28;20029;-84
2021/05/13 08:03:51;;;;;;;22.67;20.27;;;21.10;50.50;;;;;;5011755;28;20482;-83
2021/05/13 08:06:16;;;;;;;22.88;20.42;;;20.40;51.70;;;;;;4993112;28;20076;-84
2021/05/13 08:08:42;;;;;;;18.60;16.67;;;20.50;53.30;;;;;;5004008;28;20033;-82
2021/05/13 08:11:07;;;;;;;18.10;16.33;;;20.40;51.80;;;;;;5029910;28;20037;-82
2021/05/13 08:13:33;;;;;;;20.25;18.08;;;20.60;52.60;;;;;;4997508;28;20030;-81
2021/05/13 08:15:59;;;;;;;19.85;17.67;;;20.60;52.30;;;;;;4992022;28;20498;-82
2021/05/13 08:18:24;;;;;;;18.63;16.63;;;20.50;52.90;;;;;;4968836;28;20026;-82
2021/05/13 08:20:50;;;;;;;16.92;14.43;;;20.50;52.10;;;;;;4994541;28;20121;-82
2021/05/13 08:23:16;;;;;;;22.17;14.75;;;20.90;50.60;;;;;;4996743;28;20077;-83
2021/05/13 08:25:42;;;;;;;14.70;13.20;;;21.30;50.10;;;;;;4999143;28;20041;-82
2021/05/13 08:28:08;;;;;;;14.18;12.68;;;21.90;48.90;;;;;;4994002;28;20038;-83
2021/05/13 08:30:34;;;;;;;12.05;9.68;;;22.50;48.30;;;;;;4992019;28;20042;-82
2021/05/13 08:33:00;;;;;;;11.68;9.23;;;23.10;45.00;;;;;;5006399;28;20073;-83
2021/05/13 08:35:25;;;;;;;12.43;7.88;;;23.50;44.10;;;;;;5009316;28;20846;-83
2021/05/13 08:37:51;;;;;;;10.25;8.13;;;23.50;43.20;;;;;;5008842;28;20026;-81
2021/05/13 08:40:17;;;;;;;7.63;6.40;;;23.50;43.10;;;;;;4994076;28;20030;-83
2021/05/13 08:42:42;;;;;;;8.40;7.15;;;23.60;41.20;;;;;;4993377;28;20034;-82
2021/05/13 08:45:09;;;;;;;8.50;6.65;;;23.60;42.50;;;;;;4994586;28;20072;-81
2021/05/13 08:47:45;;;;;;;7.20;6.28;;;24.20;41.40;;;;;;5009133;28;20026;-85
2021/05/13 08:50:15;;;;;;;13.40;8.10;;;24.60;40.40;;;;;;4996861;28;20050;-83
2021/05/13 08:52:41;;;;;;;13.38;8.50;;;25.10;40.60;;;;;;5009744;28;20021;-83
2021/05/13 08:55:07;;;;;;;7.55;6.03;;;25.60;41.50;;;;;;5009537;28;20485;-83
2021/05/13 08:57:33;;;;;;;8.45;6.57;;;26.30;40.70;;;;;;5011182;28;20058;-84
2021/05/13 08:59:59;;;;;;;3.65;1.88;;;26.70;38.90;;;;;;5008925;28;20044;-83
2021/05/13 09:02:30;;;;;;;10.45;2.97;;;26.40;35.40;;;;;;5009813;28;20030;-82
2021/05/13 09:04:57;;;;;;;5.03;2.78;;;26.30;35.20;;;;;;4998648;28;20057;-84
2021/05/13 09:07:31;;;;;;;4.25;2.65;;;25.80;36.30;;;;;;5007368;28;20528;-83
2021/05/13 09:09:59;;;;;;;7.88;2.60;;;26.00;35.90;;;;;;4993497;28;20022;-80
2021/05/13 09:12:28;;;;;;;4.85;1.23;;;25.70;35.60;;;;;;5012166;28;20030;-82
2021/05/13 09:15:01;;;;;;;3.88;0.85;;;25.90;33.80;;;;;;5007444;28;20021;-82
2021/05/13 09:17:29;;;;;;;3.85;1.20;;;26.00;33.30;;;;;;5004498;28;20101;-80
2021/05/13 09:19:55;;;;;;;5.40;1.17;;;26.10;32.80;;;;;;5007326;28;20041;-78
2021/05/13 09:22:27;;;;;;;3.85;0.90;;;26.20;33.80;;;;;;5007307;28;20087;-79
2021/05/13 09:24:59;;;;;;;3.97;0.75;;;26.80;33.60;;;;;;4994441;28;20033;-81
2021/05/13 09:27:28;;;;;;;3.00;0.70;;;27.40;33.80;;;;;;5009702;28;20486;-80
2021/05/13 09:30:23;;;;;;;3.58;0.80;;;27.90;31.80;;;;;;5005388;28;20045;-80
2021/05/13 09:32:49;;;;;;;4.10;0.85;;;28.10;30.80;;;;;;5019229;28;20107;-82
2021/05/13 09:35:19;;;;;;;2.95;0.60;;;28.10;31.00;;;;;;5012663;28;20037;-79
2021/05/13 09:37:49;;;;;;;3.15;0.88;;;28.20;30.50;;;;;;5010359;28;20018;-82
2021/05/13 09:40:28;;;;;;;2.33;0.68;;;28.50;31.20;;;;;;5011636;28;20052;-82
2021/05/13 09:43:09;;;;;;;3.95;1.10;;;28.70;31.30;;;;;;5009190;28;20502;-82
2021/05/13 09:45:49;;;;;;;3.05;0.70;;;28.20;30.10;;;;;;5013969;28;20099;-83
2021/05/13 09:48:41;;;;;;;2.17;0.60;;;27.40;29.80;;;;;;5013579;28;20021;-82
2021/05/13 09:51:29;;;;;;;1.87;0.60;;;27.20;31.30;;;;;;4994636;28;20084;-83
2021/05/13 09:54:12;;;;;;;2.53;0.60;;;27.50;31.10;;;;;;5018825;28;20291;-82
2021/05/13 09:56:43;;;;;;;3.67;0.70;;;27.70;30.30;;;;;;5020699;28;20022;-81
2021/05/13 09:59:22;;;;;;;2.83;0.60;;;28.00;30.50;;;;;;5012493;28;20556;-82
2021/05/13 10:01:53;;;;;;;3.55;0.77;;;28.70;31.20;;;;;;5008273;28;20108;-82
2021/05/13 10:04:18;;;;;;;2.03;0.50;;;29.40;30.00;;;;;;5012033;28;20168;-82
2021/05/13 10:06:45;;;;;;;2.55;0.73;;;29.40;29.00;;;;;;5013229;28;20030;-84
2021/05/13 10:09:15;;;;;;;4.63;0.70;;;29.70;29.40;;;;;;5012289;28;20401;-84
2021/05/13 10:11:43;;;;;;;2.00;0.50;;;29.70;28.90;;;;;;5015455;28;20385;-83
2021/05/13 10:14:10;;;;;;;2.15;0.50;;;29.80;29.00;;;;;;5013749;28;20596;-83
2021/05/13 10:16:39;;;;;;;5.43;0.90;;;30.10;28.60;;;;;;5013418;28;20029;-85
2021/05/13 10:19:13;;;;;;;2.53;0.80;;;30.50;28.60;;;;;;5010044;28;20129;-82
2021/05/13 10:21:41;;;;;;;2.47;0.60;;;30.30;29.60;;;;;;5012561;28;20033;-84
2021/05/13 10:24:08;;;;;;;2.83;0.70;;;30.30;29.70;;;;;;4993133;28;20048;-83
2021/05/13 10:26:36;;;;;;;3.13;1.00;;;29.90;29.30;;;;;;4995377;28;20038;-83
2021/05/13 10:29:22;;;;;;;3.85;0.80;;;29.40;29.90;;;;;;5000787;28;20038;-82
2021/05/13 10:32:21;;;;;;;3.53;0.93;;;28.90;30.10;;;;;;5010752;28;20088;-82
2021/05/13 10:34:57;;;;;;;3.03;0.80;;;28.40;30.50;;;;;;4993398;28;20098;-82
2021/05/13 10:37:31;;;;;;;3.20;0.80;;;28.30;31.20;;;;;;4994458;28;20037;-82
2021/05/13 10:40:14;;;;;;;3.05;0.77;;;28.40;30.90;;;;;;5010793;28;20030;-82
2021/05/13 10:42:41;;;;;;;3.08;0.90;;;28.60;29.60;;;;;;5012996;28;20037;-79
2021/05/13 10:45:25;;;;;;;3.72;0.93;;;28.70;29.10;;;;;;5012623;28;20030;-82
2021/05/13 10:48:18;;;;;;;3.80;1.00;;;28.40;29.10;;;;;;5010509;28;20109;-82
2021/05/13 10:51:07;;;;;;;4.03;0.73;;;27.60;29.30;;;;;;4994873;28;20041;-80
2021/05/13 10:53:48;;;;;;;2.25;0.60;;;27.30;30.80;;;;;;4994025;28;20031;-82
2021/05/13 10:56:27;;;;;;;2.75;0.77;;;27.60;30.80;;;;;;4992813;28;20030;-83
2021/05/13 10:59:13;;;;;;;2.20;0.60;;;27.80;29.80;;;;;;5006615;28;20050;-83
2021/05/13 11:01:40;;;;;;;2.08;0.60;;;27.60;29.40;;;;;;5014955;28;20029;-83
2021/05/13 11:04:24;;;;;;;2.33;0.60;;;27.00;30.40;;;;;;5016537;28;20070;-81
2021/05/13 11:06:56;;;;;;;2.45;0.90;;;26.60;30.50;;;;;;5013253;28;20041;-82
2021/05/13 11:09:37;;;;;;;2.22;0.85;;;26.00;31.20;;;;;;5011469;28;20042;-81
2021/05/13 11:12:12;;;;;;;3.55;1.33;;;25.30;32.60;;;;;;5017180;28;20034;-83
2021/05/13 11:15:06;;;;;;;6.18;1.50;;;24.60;34.50;;;;;;5019788;28;20030;-85
2021/05/13 11:18:03;;;;;;;8.13;2.50;;;24.20;36.80;;;;;;5015251;28;20417;-82
2021/05/13 11:20:31;;;;;;;12.55;2.13;;;23.90;35.80;;;;;;5014696;28;20065;-80
2021/05/13 11:23:10;;;;;;;2.85;1.10;;;23.30;36.40;;;;;;5016867;28;20054;-83
2021/05/13 11:25:44;;;;;;;4.70;1.33;;;23.20;36.30;;;;;;4999903;28;20035;-82
2021/05/13 11:28:28;;;;;;;5.25;1.60;;;23.30;36.20;;;;;;5009671;28;20072;-83
2021/05/13 11:31:06;;;;;;;4.55;1.75;;;23.30;35.80;;;;;;5015083;28;20125;-83
2021/05/13 11:33:53;;;;;;;12.23;2.63;;;23.30;37.00;;;;;;5012567;28;20026;-82
2021/05/13 11:36:26;;;;;;;4.57;1.55;;;23.20;37.70;;;;;;5010333;28;20052;-80
2021/05/13 11:38:55;;;;;;;;;;;22.80;38.00;;;;;;5010998;28;20053;-81
2021/05/13 11:41:22;;;;;;;9.55;2.30;;;22.60;39.50;;;;;;5011379;28;19905;-82
2021/05/13 11:43:48;;;;;;;4.20;1.20;;;22.40;39.30;;;;;;5013649;28;20037;-82
2021/05/13 11:46:18;;;;;;;10.15;2.08;;;22.20;39.10;;;;;;4991160;28;20375;-82
2021/05/13 11:48:46;;;;;;;9.10;1.52;;;22.10;39.50;;;;;;4996343;28;20034;-81
2021/05/13 11:51:14;;;;;;;6.30;1.42;;;22.30;39.80;;;;;;4993302;28;20053;-80
2021/05/13 11:53:42;;;;;;;5.05;0.95;;;22.70;38.80;;;;;;5009816;28;20057;-81
2021/05/13 11:56:08;;;;;;;18.92;3.50;;;22.60;37.50;;;;;;5008917;28;20548;-81
2021/05/13 11:58:36;;;;;;;4.18;1.15;;;22.90;37.20;;;;;;5011580;28;20082;-81
2021/05/13 12:01:25;;;;;;;7.30;1.80;;;22.80;36.50;;;;;;5015260;28;20129;-83
2021/05/13 12:04:20;;;;;;;2.92;1.05;;;23.00;35.80;;;;;;5013528;28;20046;-82
2021/05/13 12:07:01;;;;;;;2.65;0.90;;;23.10;35.50;;;;;;5006707;28;20088;-83
2021/05/13 12:09:28;;;;;;;20.00;3.28;;;24.00;36.70;;;;;;5008543;28;20027;-82
2021/05/13 12:11:55;;;;;;;4.18;1.00;;;24.60;34.80;;;;;;5010977;28;20470;-82
2021/05/13 12:14:27;;;;;;;12.02;1.10;;;24.50;36.50;;;;;;5009740;28;20099;-80
2021/05/13 12:17:00;;;;;;;3.95;0.70;;;25.00;34.50;;;;;;5019263;28;20034;-82
2021/05/13 12:19:26;;;;;;;;;;;24.60;34.10;;;;;;5009487;28;20513;-79
2021/05/13 12:21:53;;;;;;;3.35;0.85;;;24.20;34.50;;;;;;5009450;28;20361;-82
2021/05/13 12:24:26;;;;;;;8.77;1.30;;;24.00;36.30;;;;;;5007616;28;20057;-81
2021/05/13 12:26:52;;;;;;;4.18;1.00;;;24.10;34.90;;;;;;5037749;28;20029;-84
2021/05/13 12:29:18;;;;;;;3.50;0.85;;;23.50;35.10;;;;;;5018125;28;20030;-85
2021/05/13 12:31:48;;;;;;;4.28;0.80;;;23.20;35.90;;;;;;5017138;28;20126;-85
2021/05/13 12:34:33;;;;;;;5.03;0.90;;;23.10;35.50;;;;;;5012448;28;20199;-82
2021/05/13 12:36:59;;;;;;;2.83;0.90;;;22.80;36.00;;;;;;5007026;28;20022;-84
2021/05/13 12:39:36;;;;;;;12.45;1.58;;;22.90;35.60;;;;;;5007959;28;20095;-82
2021/05/13 12:42:02;;;;;;;4.35;0.93;;;22.80;35.70;;;;;;4991095;28;20394;-83
2021/05/13 12:44:32;;;;;;;3.65;0.90;;;22.60;37.00;;;;;;4989358;28;20324;-82
2021/05/13 12:47:03;;;;;;;7.68;0.70;;;22.30;36.20;;;;;;5001909;28;20033;-83
2021/05/13 12:49:31;;;;;;;2.95;0.60;;;22.20;37.50;;;;;;5010210;28;20533;-82
2021/05/13 12:52:06;;;;;;;3.55;0.60;;;22.10;37.70;;;;;;5009480;28;20037;-80